createdAt,value
2017-09-02T00:00:14.099Z,11.80
2017-09-02T00:02:43.615Z,13.47
2017-09-02T00:05:13.083Z,12.97
2017-09-02T00:07:42.562Z,13.47
2017-09-02T00:10:12.018Z,14.00
2017-09-02T00:12:41.717Z,15.23
2017-09-02T00:15:11.195Z,13.40
2017-09-02T00:17:40.644Z,13.27
2017-09-02T00:20:10.100Z,14.03
2017-09-02T00:22:39.571Z,14.50
2017-09-02T00:25:09.019Z,14.37
2017-09-02T00:27:38.502Z,15.60
2017-09-02T00:30:07.959Z,14.67
2017-09-02T00:32:37.430Z,15.10
2017-09-02T00:35:06.899Z,15.33
2017-09-02T00:37:36.382Z,14.60
2017-09-02T00:40:06.039Z,14.80
2017-09-02T00:42:35.314Z,13.77
2017-09-02T00:45:04.762Z,14.57
2017-09-02T00:47:34.220Z,13.80
2017-09-02T00:50:03.694Z,14.47
2017-09-02T00:52:33.158Z,13.47
2017-09-02T00:55:02.607Z,15.20
2017-09-02T00:57:32.317Z,14.10
2017-09-02T01:00:01.794Z,13.13
2017-09-02T01:02:31.247Z,14.57
2017-09-02T01:05:00.718Z,15.83
2017-09-02T01:07:30.171Z,17.67
2017-09-02T01:09:59.678Z,20.47
2017-09-02T01:12:29.142Z,21.20
2017-09-02T01:14:58.682Z,20.00
2017-09-02T01:17:28.146Z,18.20
2017-09-02T01:19:57.782Z,18.87
2017-09-02T01:22:27.258Z,17.30
2017-09-02T01:24:56.724Z,17.53
2017-09-02T01:27:26.187Z,17.23
2017-09-02T01:29:55.454Z,15.67
2017-09-02T01:32:24.915Z,15.63
2017-09-02T01:34:54.394Z,16.50
2017-09-02T01:37:23.842Z,15.30
2017-09-02T01:39:53.306Z,15.80
2017-09-02T01:42:22.768Z,16.90
2017-09-02T01:44:52.231Z,20.37
2017-09-02T01:47:21.843Z,19.30
2017-09-02T01:49:51.315Z,21.90
2017-09-02T01:52:20.879Z,23.77
2017-09-02T01:54:50.355Z,25.83
2017-09-02T01:57:19.816Z,29.70
2017-09-02T01:59:49.279Z,27.70
2017-09-02T02:02:18.763Z,27.37
2017-09-02T02:04:48.250Z,26.17
2017-09-02T02:07:17.720Z,26.63
2017-09-02T02:09:47.182Z,26.20
2017-09-02T02:12:16.626Z,27.37
2017-09-02T02:14:46.104Z,26.43
2017-09-02T02:17:15.714Z,26.60
2017-09-02T02:19:45.206Z,26.37
2017-09-02T02:22:14.663Z,26.20
2017-09-02T02:24:44.112Z,26.90
2017-09-02T02:27:13.599Z,26.47
2017-09-02T02:29:43.065Z,24.60
2017-09-02T02:32:12.523Z,26.87
2017-09-02T02:34:41.984Z,25.50
2017-09-02T02:37:11.441Z,27.40
2017-09-02T02:39:40.896Z,26.23
2017-09-02T02:42:10.380Z,25.27
2017-09-02T02:44:39.826Z,26.90
2017-09-02T02:47:09.281Z,23.90
2017-09-02T02:49:38.753Z,23.80
2017-09-02T02:52:08.201Z,24.30
2017-09-02T02:54:37.663Z,25.50
2017-09-02T02:57:07.112Z,25.07
2017-09-02T02:59:36.652Z,23.63
2017-09-02T03:02:06.119Z,24.73
2017-09-02T03:04:35.574Z,24.10
2017-09-02T03:07:05.046Z,24.70
2017-09-02T03:09:34.516Z,23.10
2017-09-02T03:12:03.996Z,23.77
2017-09-02T03:14:33.440Z,23.10
2017-09-02T03:17:02.907Z,23.20
2017-09-02T03:19:32.379Z,25.00
2017-09-02T03:22:01.831Z,22.53
2017-09-02T03:24:31.294Z,25.73
2017-09-02T03:27:00.742Z,24.50
2017-09-02T03:29:30.272Z,25.93
2017-09-02T03:31:59.711Z,23.60
2017-09-02T03:34:29.170Z,25.03
2017-09-02T03:36:58.632Z,26.53
2017-09-02T03:39:28.098Z,24.80
2017-09-02T03:41:57.551Z,25.50
2017-09-02T03:44:27.021Z,25.00
2017-09-02T03:46:56.515Z,23.90
2017-09-02T03:49:25.967Z,24.17
2017-09-02T03:51:55.429Z,23.30
2017-09-02T03:54:24.932Z,22.47
2017-09-02T03:56:54.413Z,24.27
2017-09-02T03:59:23.882Z,25.60
2017-09-02T04:01:53.346Z,25.00
2017-09-02T04:04:22.821Z,22.57
2017-09-02T04:06:52.271Z,23.10
2017-09-02T04:09:21.742Z,24.47
2017-09-02T04:11:51.210Z,24.70
2017-09-02T04:14:20.675Z,23.90
2017-09-02T04:16:49.854Z,23.53
2017-09-02T04:19:19.318Z,25.10
2017-09-02T04:21:48.787Z,26.10
2017-09-02T04:24:18.238Z,27.07
2017-09-02T04:26:47.718Z,26.40
2017-09-02T04:29:17.192Z,25.90
2017-09-02T04:31:46.655Z,26.77
2017-09-02T04:34:16.119Z,26.50
2017-09-02T04:36:45.619Z,26.33
2017-09-02T04:39:14.907Z,26.37
2017-09-02T04:41:44.370Z,26.63
2017-09-02T04:44:13.828Z,25.30
2017-09-02T04:46:43.307Z,25.47
2017-09-02T04:49:12.750Z,24.63
2017-09-02T04:51:42.199Z,26.40
2017-09-02T04:54:11.658Z,26.33
2017-09-02T04:56:41.119Z,25.80
2017-09-02T04:59:10.591Z,24.70
2017-09-02T05:01:40.048Z,26.20
2017-09-02T05:04:09.507Z,24.60
2017-09-02T05:06:38.960Z,22.87
2017-09-02T05:09:08.431Z,25.10
2017-09-02T05:11:37.878Z,24.50
2017-09-02T05:14:07.352Z,23.83
2017-09-02T05:16:37.639Z,25.50
2017-09-02T05:19:07.106Z,27.37
2017-09-02T05:21:36.556Z,25.93
2017-09-02T05:24:06.023Z,25.07
2017-09-02T05:26:35.466Z,27.87
2017-09-02T05:29:04.925Z,26.90
2017-09-02T05:31:34.386Z,24.37
2017-09-02T05:34:03.834Z,23.03
2017-09-02T05:36:33.364Z,22.50
2017-09-02T05:39:02.807Z,21.10
2017-09-02T05:41:32.284Z,21.70
2017-09-02T05:44:01.742Z,21.43
2017-09-02T05:46:31.186Z,22.93
2017-09-02T05:49:00.658Z,24.17
2017-09-02T05:51:30.114Z,23.67
2017-09-02T05:53:59.589Z,26.23
2017-09-02T05:56:29.034Z,25.30
2017-09-02T05:58:58.514Z,24.50
2017-09-02T06:01:27.995Z,23.73
2017-09-02T06:03:57.451Z,24.37
2017-09-02T06:06:26.910Z,24.00
2017-09-02T06:08:56.368Z,24.63
2017-09-02T06:11:25.844Z,23.80
2017-09-02T06:13:55.321Z,23.40
2017-09-02T06:16:24.831Z,24.00
2017-09-02T06:18:54.302Z,24.63
2017-09-02T06:21:23.997Z,23.90
2017-09-02T06:23:53.467Z,23.47
2017-09-02T06:26:22.945Z,24.27
2017-09-02T06:28:52.570Z,24.67
2017-09-02T06:31:22.063Z,24.73
2017-09-02T06:33:51.581Z,24.40
2017-09-02T06:36:21.054Z,23.40
2017-09-02T06:38:50.553Z,22.87
2017-09-02T06:41:20.074Z,22.50
2017-09-02T06:43:49.535Z,22.93
2017-09-02T06:46:19.028Z,22.63
2017-09-02T06:48:48.526Z,23.27
2017-09-02T06:51:18.007Z,21.20
2017-09-02T06:53:47.451Z,21.73
2017-09-02T06:56:16.951Z,20.83
2017-09-02T06:58:46.403Z,20.60
2017-09-02T07:01:15.871Z,19.57
2017-09-02T07:03:45.346Z,21.07
2017-09-02T07:06:14.812Z,20.97
2017-09-02T07:08:44.310Z,20.13
2017-09-02T07:11:13.777Z,22.00
2017-09-02T07:13:43.263Z,20.80
2017-09-02T07:16:12.730Z,20.90
2017-09-02T07:18:42.190Z,21.00
2017-09-02T07:21:11.489Z,20.20
2017-09-02T07:23:40.961Z,19.77
2017-09-02T07:26:10.538Z,19.20
2017-09-02T07:28:40.054Z,17.53
2017-09-02T07:31:09.531Z,19.60
2017-09-02T07:33:39.013Z,18.83
2017-09-02T07:36:08.497Z,18.07
2017-09-02T07:38:37.964Z,18.80
2017-09-02T07:41:07.424Z,18.07
2017-09-02T07:43:36.932Z,18.30
2017-09-02T07:46:06.203Z,17.80
2017-09-02T07:48:35.698Z,18.43
2017-09-02T07:51:05.168Z,19.43
2017-09-02T07:53:34.644Z,18.37
2017-09-02T07:56:04.111Z,19.70
2017-09-02T07:58:33.569Z,18.23
2017-09-02T08:01:02.861Z,17.90
2017-09-02T08:03:32.132Z,17.93
2017-09-02T08:06:01.452Z,20.43
2017-09-02T08:08:30.745Z,19.43
2017-09-02T08:11:00.194Z,20.67
2017-09-02T08:13:29.681Z,17.87
2017-09-02T08:15:59.164Z,18.27
2017-09-02T08:18:28.631Z,16.47
2017-09-02T08:20:58.154Z,18.20
2017-09-02T08:23:27.604Z,17.70
2017-09-02T08:25:57.159Z,17.60
2017-09-02T08:28:26.635Z,15.10
2017-09-02T08:30:56.345Z,15.83
2017-09-02T08:33:25.790Z,14.57
2017-09-02T08:35:55.258Z,13.93
2017-09-02T08:38:24.787Z,14.03
2017-09-02T08:40:54.282Z,12.97
2017-09-02T08:43:24.172Z,11.90
2017-09-02T08:45:54.436Z,11.50
2017-09-02T08:48:24.339Z,11.70
2017-09-02T08:50:54.189Z,10.60
2017-09-02T08:53:24.180Z,11.53
2017-09-02T08:55:54.125Z,10.83
2017-09-02T08:58:23.928Z,12.30
2017-09-02T09:00:53.789Z,12.00
2017-09-02T09:03:23.696Z,9.47
2017-09-02T09:05:53.587Z,10.33
2017-09-02T09:08:23.504Z,10.60
2017-09-02T09:10:53.353Z,12.23
2017-09-02T09:13:22.883Z,10.97
2017-09-02T09:15:52.331Z,13.47
2017-09-02T09:18:21.786Z,13.80
2017-09-02T09:20:51.259Z,13.40
2017-09-02T09:23:21.233Z,12.47
2017-09-02T09:25:50.803Z,13.83
2017-09-02T09:28:20.377Z,12.70
2017-09-02T09:30:49.832Z,12.83
2017-09-02T09:33:19.610Z,15.33
2017-09-02T09:35:49.086Z,11.53
2017-09-02T09:38:18.595Z,12.50
2017-09-02T09:40:48.047Z,11.83
2017-09-02T09:43:17.512Z,11.30
2017-09-02T09:45:46.994Z,8.87
2017-09-02T09:48:16.531Z,9.10
2017-09-02T09:50:46.016Z,8.33
2017-09-02T09:53:15.571Z,8.03
2017-09-02T09:55:45.030Z,7.00
2017-09-02T09:58:14.517Z,7.40
2017-09-02T10:00:43.983Z,6.83
2017-09-02T10:03:13.432Z,6.87
2017-09-02T10:05:42.935Z,7.13
2017-09-02T10:08:12.412Z,6.90
2017-09-02T10:10:41.876Z,6.77
2017-09-02T10:13:11.330Z,8.93
2017-09-02T10:15:40.783Z,7.07
2017-09-02T10:18:10.394Z,6.33
2017-09-02T10:20:39.843Z,6.93
2017-09-02T10:23:09.381Z,6.73
2017-09-02T10:25:39.003Z,5.93
2017-09-02T10:28:08.447Z,6.40
2017-09-02T10:30:37.928Z,6.00
2017-09-02T10:33:07.385Z,6.27
2017-09-02T10:35:36.898Z,6.37
2017-09-02T10:38:06.517Z,7.40
2017-09-02T10:40:36.000Z,8.20
2017-09-02T10:43:05.455Z,7.90
2017-09-02T10:45:34.967Z,9.00
2017-09-02T10:48:04.469Z,9.63
2017-09-02T10:50:33.922Z,7.53
2017-09-02T10:53:03.415Z,6.10
2017-09-02T10:55:32.876Z,6.13
2017-09-02T10:58:02.328Z,5.87
2017-09-02T11:00:31.805Z,6.60
2017-09-02T11:03:01.252Z,5.90
2017-09-02T11:05:30.718Z,5.10
2017-09-02T11:08:00.166Z,5.30
2017-09-02T11:10:29.436Z,6.03
2017-09-02T11:12:58.903Z,5.77
2017-09-02T11:15:28.366Z,6.20
2017-09-02T11:17:57.834Z,7.43
2017-09-02T11:20:27.351Z,6.57
2017-09-02T11:22:56.824Z,6.40
2017-09-02T11:25:26.339Z,6.80
2017-09-02T11:27:55.855Z,5.97
2017-09-02T11:30:25.336Z,6.00
2017-09-02T11:32:54.791Z,6.20
2017-09-02T11:35:24.039Z,5.20
2017-09-02T11:37:53.507Z,6.03
2017-09-02T11:40:23.070Z,5.80
2017-09-02T11:42:52.687Z,6.13
2017-09-02T11:45:22.171Z,4.93
2017-09-02T11:47:51.686Z,5.77
2017-09-02T11:50:21.156Z,6.47
2017-09-02T11:52:50.614Z,7.37
2017-09-02T11:55:20.058Z,6.30
2017-09-02T11:57:49.634Z,6.70
2017-09-02T12:00:19.099Z,6.60
2017-09-02T12:02:48.658Z,7.10
2017-09-02T12:05:18.132Z,6.63
2017-09-02T12:07:47.616Z,6.10
2017-09-02T12:10:17.095Z,6.27
2017-09-02T12:12:46.578Z,6.63
2017-09-02T12:15:16.058Z,6.27
2017-09-02T12:17:45.514Z,5.83
2017-09-02T12:20:15.001Z,6.80
2017-09-02T12:22:44.539Z,6.07
2017-09-02T12:25:14.020Z,6.37
2017-09-02T12:27:43.476Z,5.93
2017-09-02T12:30:12.931Z,6.77
2017-09-02T12:32:42.430Z,6.27
2017-09-02T12:35:11.919Z,5.60
2017-09-02T12:37:41.373Z,5.90
2017-09-02T12:40:10.844Z,6.20
2017-09-02T12:42:40.290Z,6.07
2017-09-02T12:45:09.785Z,6.73
2017-09-02T12:47:39.242Z,7.60
2017-09-02T12:50:08.736Z,7.20
2017-09-02T12:52:38.207Z,8.17
2017-09-02T12:55:07.700Z,8.90
2017-09-02T12:57:37.173Z,8.30
2017-09-02T13:00:06.661Z,7.00
2017-09-02T13:02:36.129Z,7.17
2017-09-02T13:05:05.619Z,7.30
2017-09-02T13:07:35.084Z,6.33
2017-09-02T13:10:04.539Z,5.57
2017-09-02T13:12:34.029Z,6.77
2017-09-02T13:15:03.487Z,6.87
2017-09-02T13:17:33.023Z,6.43
2017-09-02T13:20:02.481Z,5.57
2017-09-02T13:22:31.960Z,6.23
2017-09-02T13:25:01.445Z,5.10
2017-09-02T13:27:31.001Z,4.97
2017-09-02T13:30:00.495Z,5.17
2017-09-02T13:32:29.970Z,5.03
2017-09-02T13:34:59.419Z,4.00
2017-09-02T13:37:28.931Z,4.30
2017-09-02T13:39:58.393Z,4.33
2017-09-02T13:42:27.847Z,4.33
2017-09-02T13:44:57.356Z,4.50
2017-09-02T13:47:26.864Z,4.40
2017-09-02T13:49:56.352Z,4.50
2017-09-02T13:52:25.836Z,4.87
2017-09-02T13:54:55.316Z,5.63
2017-09-02T13:57:24.843Z,5.00
2017-09-02T13:59:54.312Z,5.33
2017-09-02T14:02:23.786Z,4.93
2017-09-02T14:04:53.263Z,5.97
2017-09-02T14:07:22.727Z,6.00
2017-09-02T14:09:52.049Z,5.60
2017-09-02T14:12:21.332Z,5.00
2017-09-02T14:14:50.619Z,5.20
2017-09-02T14:17:20.117Z,5.50
2017-09-02T14:19:49.628Z,5.80
2017-09-02T14:22:19.083Z,4.97
2017-09-02T14:24:48.376Z,4.90
2017-09-02T14:27:17.845Z,5.00
2017-09-02T14:29:47.325Z,5.40
2017-09-02T14:32:16.790Z,5.10
2017-09-02T14:34:46.276Z,5.30
2017-09-02T14:37:15.732Z,5.10
2017-09-02T14:39:45.244Z,6.40
2017-09-02T14:42:14.733Z,5.13
2017-09-02T14:44:44.215Z,4.90
2017-09-02T14:47:13.680Z,5.53
2017-09-02T14:49:43.123Z,4.93
2017-09-02T14:52:12.598Z,5.90
2017-09-02T14:54:42.047Z,5.23
2017-09-02T14:57:11.506Z,4.93
2017-09-02T14:59:40.981Z,5.10
2017-09-02T15:02:10.446Z,4.50
2017-09-02T15:04:39.938Z,5.10
2017-09-02T15:07:09.406Z,5.00
2017-09-02T15:09:38.880Z,5.47
2017-09-02T15:12:08.336Z,5.80
2017-09-02T15:14:37.838Z,4.50
2017-09-02T15:17:07.445Z,5.93
2017-09-02T15:19:36.891Z,5.40
2017-09-02T15:22:06.372Z,4.87
2017-09-02T15:24:35.835Z,5.20
2017-09-02T15:27:05.321Z,4.97
2017-09-02T15:29:34.788Z,4.60
2017-09-02T15:32:04.305Z,4.70
2017-09-02T15:34:33.770Z,5.17
2017-09-02T15:37:03.226Z,4.77
2017-09-02T15:39:32.687Z,4.80
2017-09-02T15:42:02.139Z,4.63
2017-09-02T15:44:31.626Z,4.90
2017-09-02T15:47:01.090Z,4.57
2017-09-02T15:49:30.571Z,5.00
2017-09-02T15:52:00.046Z,4.80
2017-09-02T15:54:29.539Z,4.77
2017-09-02T15:56:58.991Z,5.30
2017-09-02T15:59:28.283Z,5.53
2017-09-02T16:01:57.749Z,5.77
2017-09-02T16:04:27.182Z,5.03
2017-09-02T16:06:56.761Z,5.60
2017-09-02T16:09:26.229Z,5.43
2017-09-02T16:11:55.692Z,6.53
2017-09-02T16:14:25.160Z,6.80
2017-09-02T16:16:54.611Z,5.70
2017-09-02T16:19:24.090Z,6.43
2017-09-02T16:21:53.512Z,6.37
2017-09-02T16:24:22.995Z,5.80
2017-09-02T16:26:52.460Z,7.03
2017-09-02T16:29:21.946Z,6.40
2017-09-02T16:31:51.403Z,7.17
2017-09-02T16:34:20.870Z,7.37
2017-09-02T16:36:50.348Z,7.27
2017-09-02T16:39:19.926Z,6.43
2017-09-02T16:41:49.393Z,6.90
2017-09-02T16:44:19.071Z,7.43
2017-09-02T16:46:48.390Z,6.77
2017-09-02T16:49:17.686Z,7.37
2017-09-02T16:51:46.970Z,7.53
2017-09-02T16:54:16.238Z,6.53
2017-09-02T16:56:45.612Z,6.37
2017-09-02T16:59:14.881Z,6.83
2017-09-02T17:01:44.172Z,6.07
2017-09-02T17:04:13.446Z,6.70
2017-09-02T17:06:42.857Z,6.30
2017-09-02T17:09:12.115Z,6.70
2017-09-02T17:11:41.431Z,5.63
2017-09-02T17:14:10.719Z,6.27
2017-09-02T17:16:40.146Z,6.13
2017-09-02T17:19:09.410Z,5.50
2017-09-02T17:21:38.712Z,5.93
2017-09-02T17:24:08.039Z,5.80
2017-09-02T17:26:37.310Z,5.60
2017-09-02T17:29:06.602Z,6.10
2017-09-02T17:31:35.891Z,5.40
2017-09-02T17:34:05.442Z,5.63
2017-09-02T17:36:34.903Z,6.60
2017-09-02T17:39:04.125Z,5.10
2017-09-02T17:41:33.591Z,5.80
2017-09-02T17:44:03.035Z,5.03
2017-09-02T17:46:32.519Z,5.23
2017-09-02T17:49:01.988Z,5.30
2017-09-02T17:51:31.461Z,5.67
2017-09-02T17:54:00.956Z,4.80
2017-09-02T17:56:30.411Z,5.23
2017-09-02T17:58:59.876Z,4.30
2017-09-02T18:01:29.438Z,4.90
2017-09-02T18:03:58.915Z,5.20
2017-09-02T18:06:28.366Z,5.70
2017-09-02T18:08:57.828Z,5.13
2017-09-02T18:11:27.282Z,4.80
2017-09-02T18:13:56.795Z,5.33
2017-09-02T18:16:26.275Z,5.27
2017-09-02T18:18:55.714Z,4.83
2017-09-02T18:21:25.186Z,5.20
2017-09-02T18:23:54.648Z,5.00
2017-09-02T18:26:24.128Z,4.70
2017-09-02T18:28:53.579Z,5.37
2017-09-02T18:31:23.028Z,5.07
2017-09-02T18:33:52.487Z,5.40
2017-09-02T18:36:22.050Z,5.57
2017-09-02T18:38:51.524Z,5.00
2017-09-02T18:41:20.975Z,4.73
2017-09-02T18:43:50.448Z,5.27
2017-09-02T18:46:19.961Z,5.00
2017-09-02T18:48:49.235Z,5.40
2017-09-02T18:51:18.730Z,5.67
2017-09-02T18:53:48.157Z,5.17
2017-09-02T18:56:17.647Z,5.97
2017-09-02T18:58:47.110Z,5.73
2017-09-02T19:01:16.581Z,6.20
2017-09-02T19:03:46.110Z,5.80
2017-09-02T19:06:15.555Z,5.73
2017-09-02T19:08:45.028Z,6.20
2017-09-02T19:11:14.486Z,6.03
2017-09-02T19:13:43.757Z,6.00
2017-09-02T19:16:13.279Z,6.07
2017-09-02T19:18:42.795Z,6.23
2017-09-02T19:21:12.255Z,6.00
2017-09-02T19:23:41.740Z,5.57
2017-09-02T19:26:11.191Z,5.90
2017-09-02T19:28:40.650Z,6.60
2017-09-02T19:31:10.351Z,6.70
2017-09-02T19:33:39.838Z,6.13
2017-09-02T19:36:09.346Z,5.60
2017-09-02T19:38:38.803Z,5.93
2017-09-02T19:41:08.291Z,6.03
2017-09-02T19:43:37.754Z,5.80
2017-09-02T19:46:07.230Z,5.90
2017-09-02T19:48:36.699Z,5.80
2017-09-02T19:51:06.151Z,6.80
2017-09-02T19:53:35.619Z,6.30
2017-09-02T19:56:05.183Z,6.53
2017-09-02T19:58:34.927Z,6.33
2017-09-02T20:01:04.419Z,5.87
2017-09-02T20:03:33.883Z,5.53
2017-09-02T20:06:03.332Z,5.50
2017-09-02T20:08:32.623Z,5.73
2017-09-02T20:11:02.077Z,4.67
2017-09-02T20:13:31.546Z,5.07
2017-09-02T20:16:01.144Z,5.50
2017-09-02T20:18:30.608Z,5.00
2017-09-02T20:21:00.099Z,12.83
2017-09-02T20:23:29.571Z,7.30
2017-09-02T20:25:59.048Z,6.07
2017-09-02T20:28:28.499Z,6.60
2017-09-02T20:30:57.976Z,6.10
2017-09-02T20:33:27.427Z,5.70
2017-09-02T20:35:56.985Z,5.70
2017-09-02T20:38:26.507Z,5.97
2017-09-02T20:40:56.086Z,6.27
2017-09-02T20:43:25.548Z,6.40
2017-09-02T20:45:55.032Z,6.70
2017-09-02T20:48:24.546Z,7.00
2017-09-02T20:50:54.051Z,7.00
2017-09-02T20:53:23.502Z,6.40
2017-09-02T20:55:52.972Z,7.33
2017-09-02T20:58:22.529Z,6.83
2017-09-02T21:00:52.006Z,6.90
2017-09-02T21:03:21.512Z,6.30
2017-09-02T21:05:51.010Z,6.20
2017-09-02T21:08:20.464Z,7.03
2017-09-02T21:10:49.922Z,6.80
2017-09-02T21:13:19.387Z,7.40
2017-09-02T21:15:48.842Z,7.10
2017-09-02T21:18:18.307Z,7.50
2017-09-02T21:20:47.774Z,8.17
2017-09-02T21:23:17.238Z,8.03
2017-09-02T21:25:46.708Z,8.90
2017-09-02T21:28:16.176Z,8.60
2017-09-02T21:30:45.672Z,10.10
2017-09-02T21:33:15.127Z,13.10
2017-09-02T21:35:44.626Z,8.23
2017-09-02T21:38:14.087Z,8.70
2017-09-02T21:40:43.537Z,7.33
2017-09-02T21:43:13.006Z,8.20
2017-09-02T21:45:42.472Z,7.90
2017-09-02T21:48:11.943Z,8.10
2017-09-02T21:50:41.396Z,8.17
2017-09-02T21:53:10.874Z,9.30
2017-09-02T21:55:40.327Z,7.70
2017-09-02T21:58:09.803Z,8.73
2017-09-02T22:00:39.259Z,8.80
2017-09-02T22:03:08.728Z,9.10
2017-09-02T22:05:38.213Z,9.50
2017-09-02T22:08:07.691Z,9.53
2017-09-02T22:10:37.147Z,9.60
2017-09-02T22:13:06.602Z,10.20
2017-09-02T22:15:36.103Z,9.37
2017-09-02T22:18:05.580Z,11.63
2017-09-02T22:20:35.065Z,10.33
2017-09-02T22:23:04.544Z,9.77
2017-09-02T22:25:34.057Z,10.20
2017-09-02T22:28:03.531Z,10.27
2017-09-02T22:30:32.978Z,10.77
2017-09-02T22:33:02.519Z,10.70
2017-09-02T22:35:32.058Z,11.07
2017-09-02T22:38:01.551Z,11.43
2017-09-02T22:40:31.014Z,11.17
2017-09-02T22:43:00.531Z,12.40
2017-09-02T22:45:30.052Z,11.20
2017-09-02T22:47:59.646Z,11.60
2017-09-02T22:50:29.103Z,11.10
2017-09-02T22:52:58.576Z,11.80
2017-09-02T22:55:28.079Z,10.87
2017-09-02T22:57:57.567Z,12.10
2017-09-02T23:00:27.031Z,12.13
2017-09-02T23:02:56.585Z,11.57
2017-09-02T23:05:26.082Z,11.47
2017-09-02T23:07:57.263Z,11.57
2017-09-02T23:10:26.731Z,12.13
2017-09-02T23:12:56.204Z,12.40
2017-09-02T23:15:25.686Z,11.67
2017-09-02T23:17:55.167Z,12.07
2017-09-02T23:20:24.623Z,12.57
2017-09-02T23:22:54.087Z,12.20
2017-09-02T23:25:23.575Z,12.30
2017-09-02T23:27:53.084Z,12.17
2017-09-02T23:30:22.774Z,29.17
2017-09-02T23:32:52.260Z,12.33
2017-09-02T23:35:21.738Z,10.00
2017-09-02T23:37:51.191Z,10.53
2017-09-02T23:40:20.700Z,10.67
2017-09-02T23:42:50.328Z,11.37
2017-09-02T23:45:19.801Z,11.60
2017-09-02T23:47:49.253Z,11.57
2017-09-02T23:50:18.707Z,11.87
2017-09-02T23:52:48.190Z,11.17
2017-09-02T23:55:17.740Z,13.40
2017-09-02T23:57:47.202Z,12.83
